createdAt,value
2023-01-11T00:02:10.543Z,98363.13
2023-01-11T00:06:46.757Z,98356.88
2023-01-11T00:11:22.833Z,98358.47
2023-01-11T00:15:40.839Z,98379.19
2023-01-11T00:19:58.823Z,98380.63
2023-01-11T00:24:16.434Z,98378.88
2023-01-11T00:28:34.596Z,98360.56
2023-01-11T00:32:57.188Z,98356.22
2023-01-11T00:37:14.854Z,98368.75
2023-01-11T00:41:51.333Z,98374.22
2023-01-11T00:46:28.065Z,98377.72
2023-01-11T00:50:45.827Z,98382.25
2023-01-11T00:55:03.493Z,98381.75
2023-01-11T00:59:21.393Z,98383.06
2023-01-11T01:03:38.977Z,98399.09
2023-01-11T01:07:56.596Z,98385.44
2023-01-11T01:12:44.554Z,98390.91
2023-01-11T01:17:09.612Z,98393.31
2023-01-11T01:21:27.802Z,98384.00
2023-01-11T01:25:45.503Z,98395.41
2023-01-11T01:30:04.063Z,98386.56
2023-01-11T01:34:22.159Z,98390.91
2023-01-11T01:38:40.013Z,98387.06
2023-01-11T01:42:57.915Z,98383.19
2023-01-11T01:47:16.253Z,98381.94
2023-01-11T01:51:49.118Z,98387.53
2023-01-11T01:56:27.269Z,98384.16
2023-01-11T02:00:46.186Z,98375.16
2023-01-11T02:05:05.109Z,98377.59
2023-01-11T02:09:47.674Z,98367.31
2023-01-11T02:14:12.247Z,98379.00
2023-01-11T02:18:30.113Z,98378.22
2023-01-11T02:23:06.003Z,98367.78
2023-01-11T02:27:28.594Z,98357.03
2023-01-11T02:31:54.741Z,98352.72
2023-01-11T02:36:34.140Z,98350.75
2023-01-11T02:41:10.136Z,98344.34
2023-01-11T02:45:46.354Z,98356.72
2023-01-11T02:50:33.900Z,98366.97
2023-01-11T02:54:56.842Z,98354.94
2023-01-11T02:59:20.605Z,98358.13
2023-01-11T03:03:38.646Z,98356.56
2023-01-11T03:08:06.134Z,98355.41
2023-01-11T03:12:55.226Z,98355.13
2023-01-11T03:17:46.165Z,98365.69
2023-01-11T03:22:36.813Z,98368.94
2023-01-11T03:27:03.613Z,98371.97
2023-01-11T03:31:32.975Z,98363.94
2023-01-11T03:36:20.961Z,98361.69
2023-01-11T03:40:45.032Z,98349.00
2023-01-11T03:45:04.182Z,98355.28
2023-01-11T03:49:40.713Z,98361.69
2023-01-11T03:54:01.368Z,98359.44
2023-01-11T03:58:19.034Z,98353.81
2023-01-11T04:02:41.147Z,98359.75
2023-01-11T04:06:58.946Z,98369.41
2023-01-11T04:11:16.702Z,98362.81
2023-01-11T04:15:35.983Z,98353.03
2023-01-11T04:19:53.509Z,98360.91
2023-01-11T04:24:11.302Z,98356.88
2023-01-11T04:28:29.698Z,98353.31
2023-01-11T04:32:47.474Z,98342.91
2023-01-11T04:37:05.396Z,98352.03
2023-01-11T04:41:41.638Z,98345.63
2023-01-11T04:45:59.647Z,98349.66
2023-01-11T04:50:17.792Z,98337.13
2023-01-11T04:54:35.396Z,98347.88
2023-01-11T04:58:54.367Z,98339.53
2023-01-11T05:03:11.877Z,98326.53
2023-01-11T05:07:29.884Z,98333.13
2023-01-11T05:11:47.564Z,98321.91
2023-01-11T05:16:05.611Z,98317.84
2023-01-11T05:20:23.177Z,98320.59
2023-01-11T05:24:40.959Z,98324.75
2023-01-11T05:29:01.398Z,98328.31
2023-01-11T05:33:19.707Z,98329.59
2023-01-11T05:37:38.523Z,98325.75
2023-01-11T05:41:56.104Z,98318.84
2023-01-11T05:46:13.704Z,98312.41
2023-01-11T05:50:31.477Z,98298.78
2023-01-11T05:54:48.988Z,98293.94
2023-01-11T05:59:07.444Z,98297.97
2023-01-11T06:03:26.540Z,98301.50
2023-01-11T06:07:44.502Z,98311.75
2023-01-11T06:12:02.274Z,98307.56
2023-01-11T06:16:22.605Z,98298.13
2023-01-11T06:20:40.208Z,98291.06
2023-01-11T06:24:57.985Z,98281.28
2023-01-11T06:29:15.544Z,98289.13
2023-01-11T06:33:34.351Z,98285.94
2023-01-11T06:37:51.878Z,98295.41
2023-01-11T06:42:09.606Z,98305.22
2023-01-11T06:46:29.094Z,98305.84
2023-01-11T06:50:52.300Z,98302.94
2023-01-11T06:55:10.271Z,98300.84
2023-01-11T06:59:27.939Z,98297.63
2023-01-11T07:03:46.051Z,98302.75
2023-01-11T07:08:04.221Z,98307.75
2023-01-11T07:12:21.855Z,98306.28
2023-01-11T07:16:39.648Z,98308.06
2023-01-11T07:20:57.156Z,98303.25
2023-01-11T07:25:15.252Z,98302.91
2023-01-11T07:29:32.819Z,98299.56
2023-01-11T07:33:50.789Z,98286.84
2023-01-11T07:38:10.297Z,98286.03
2023-01-11T07:42:46.696Z,98295.97
2023-01-11T07:47:04.223Z,98278.00
2023-01-11T07:51:24.781Z,98270.59
2023-01-11T07:55:42.940Z,98264.34
2023-01-11T08:00:00.694Z,98264.97
2023-01-11T08:04:18.449Z,98259.16
2023-01-11T08:08:36.105Z,98264.50
2023-01-11T08:13:12.451Z,98267.84
2023-01-11T08:17:29.938Z,98271.41
2023-01-11T08:21:48.075Z,98279.72
2023-01-11T08:26:05.745Z,98273.94
2023-01-11T08:30:23.336Z,98278.38
2023-01-11T08:34:41.072Z,98284.19
2023-01-11T08:38:58.944Z,98277.88
2023-01-11T08:43:16.497Z,98285.91
2023-01-11T08:47:34.581Z,98276.75
2023-01-11T08:51:52.300Z,98273.06
2023-01-11T08:56:10.057Z,98274.47
2023-01-11T09:00:28.054Z,98273.22
2023-01-11T09:04:45.778Z,98286.34
2023-01-11T09:09:03.358Z,98259.97
2023-01-11T09:13:21.079Z,98265.31
2023-01-11T09:17:38.558Z,98258.53
2023-01-11T09:21:59.383Z,98255.16
2023-01-11T09:26:16.895Z,98246.47
2023-01-11T09:30:34.673Z,98253.06
2023-01-11T09:34:57.360Z,98254.03
2023-01-11T09:39:18.985Z,98246.81
2023-01-11T09:43:47.084Z,98241.31
2023-01-11T09:48:23.235Z,98254.34
2023-01-11T09:52:51.528Z,98243.22
2023-01-11T09:57:41.170Z,98245.41
2023-01-11T10:02:18.553Z,98227.94
2023-01-11T10:07:15.826Z,98230.50
2023-01-11T10:18:39.367Z,98228.53
2023-01-11T10:22:37.023Z,98224.59
2023-01-11T10:27:02.487Z,98214.81
2023-01-11T10:31:45.839Z,98207.09
2023-01-11T10:36:38.838Z,98204.13
2023-01-11T10:41:10.516Z,98197.75
2023-01-11T10:45:44.703Z,98190.63
2023-01-11T10:50:30.767Z,98177.63
2023-01-11T10:54:53.540Z,98167.16
2023-01-11T10:59:26.523Z,98165.91
2023-01-11T11:04:13.064Z,98171.41
2023-01-11T11:08:52.419Z,98167.47
2023-01-11T11:13:43.365Z,98174.25
2023-01-11T11:18:01.006Z,98172.81
2023-01-11T11:22:22.200Z,98161.06
2023-01-11T11:26:44.495Z,98151.66
2023-01-11T11:31:05.329Z,98150.28
2023-01-11T11:35:37.731Z,98149.03
2023-01-11T11:39:56.326Z,98135.13
2023-01-11T11:44:31.963Z,98150.50
2023-01-11T11:49:18.087Z,98149.56
2023-01-11T11:53:48.390Z,98158.22
2023-01-11T11:58:08.712Z,98168.81
2023-01-11T12:02:32.325Z,98188.91
2023-01-11T12:07:24.424Z,98176.31
2023-01-11T12:11:42.355Z,98187.84
2023-01-11T12:16:23.626Z,98173.53
2023-01-11T12:20:42.481Z,98180.06
2023-01-11T12:25:14.527Z,98174.63
2023-01-11T12:29:59.627Z,98172.56
2023-01-11T12:34:32.478Z,98156.53
2023-01-11T12:39:03.068Z,98141.69
2023-01-11T12:43:38.851Z,98127.59
2023-01-11T12:48:17.532Z,98128.81
2023-01-11T12:53:02.868Z,98120.19
2023-01-11T12:58:05.485Z,98111.56
2023-01-11T13:02:48.561Z,98094.84
2023-01-11T13:07:58.325Z,98100.13
2023-01-11T13:12:28.787Z,98090.13
2023-01-11T13:17:10.695Z,98080.72
2023-01-11T13:21:43.590Z,98068.94
2023-01-11T13:26:26.311Z,98066.03
2023-01-11T13:30:46.396Z,98059.38
2023-01-11T13:35:16.808Z,98052.19
2023-01-11T13:39:48.487Z,98054.78
2023-01-11T13:44:18.557Z,98034.28
2023-01-11T13:48:55.783Z,98028.06
2023-01-11T13:53:36.545Z,98024.44
2023-01-11T13:58:06.217Z,98026.31
2023-01-11T14:02:38.668Z,98022.50
2023-01-11T14:07:44.870Z,98027.09
2023-01-11T14:12:12.144Z,98026.47
2023-01-11T14:16:40.911Z,98016.44
2023-01-11T14:21:29.680Z,98012.97
2023-01-11T14:26:02.867Z,98011.72
2023-01-11T14:30:40.497Z,97995.38
2023-01-11T14:35:19.561Z,97991.03
2023-01-11T14:40:05.513Z,97970.03
2023-01-11T14:45:17.069Z,97971.34
2023-01-11T14:50:08.517Z,97983.75
2023-01-11T14:54:49.588Z,97967.69
2023-01-11T14:59:36.255Z,97958.38
2023-01-11T15:03:56.673Z,97943.13
2023-01-11T15:08:14.051Z,97954.13
2023-01-11T15:12:41.461Z,97949.94
2023-01-11T15:17:21.068Z,97938.53
2023-01-11T15:21:49.004Z,97938.41
2023-01-11T15:26:09.596Z,97934.38
2023-01-11T15:30:30.460Z,97920.72
2023-01-11T15:34:49.367Z,97915.59
2023-01-11T15:39:10.108Z,97934.59
2023-01-11T15:44:01.641Z,97934.00
2023-01-11T15:49:13.711Z,97917.50
2023-01-11T15:54:24.990Z,97914.69
2023-01-11T15:59:19.825Z,97912.91
2023-01-11T16:04:18.684Z,97908.22
2023-01-11T16:08:49.213Z,97907.66
2023-01-11T16:13:19.005Z,97903.31
2023-01-11T16:17:41.195Z,97912.19
2023-01-11T16:22:03.619Z,97902.88
2023-01-11T16:26:22.354Z,97904.81
2023-01-11T16:30:41.403Z,97901.47
2023-01-11T16:35:01.053Z,97901.28
2023-01-11T16:39:27.616Z,97897.56
2023-01-11T16:44:00.220Z,97894.81
2023-01-11T16:48:32.768Z,97880.13
2023-01-11T16:52:55.144Z,97894.28
2023-01-11T16:57:16.509Z,97888.50
2023-01-11T17:01:53.842Z,97890.09
2023-01-11T17:06:22.532Z,97883.38
2023-01-11T17:10:40.076Z,97885.78
2023-01-11T17:15:09.994Z,97879.50
2023-01-11T17:19:31.195Z,97886.94
2023-01-11T17:23:51.418Z,97888.69
2023-01-11T17:28:18.372Z,97900.03
2023-01-11T17:32:44.070Z,97888.84
2023-01-11T17:37:04.916Z,97884.53
2023-01-11T17:41:41.554Z,97890.47
2023-01-11T17:46:02.818Z,97892.59
2023-01-11T17:50:54.741Z,97889.69
2023-01-11T17:55:22.202Z,97878.97
2023-01-11T17:59:40.025Z,97875.59
2023-01-11T18:03:58.929Z,97880.88
2023-01-11T18:08:22.085Z,97869.63
2023-01-11T18:12:45.573Z,97876.53
2023-01-11T18:17:25.165Z,97876.19
2023-01-11T18:21:54.719Z,97877.34
2023-01-11T18:26:29.107Z,97881.06
2023-01-11T18:30:54.009Z,97879.19
2023-01-11T18:35:20.530Z,97880.81
2023-01-11T18:39:38.699Z,97891.06
2023-01-11T18:43:56.606Z,97887.53
2023-01-11T18:48:15.563Z,97893.13
2023-01-11T18:52:32.549Z,97886.34
2023-01-11T18:56:50.446Z,97879.63
2023-01-11T19:01:09.476Z,97884.78
2023-01-11T19:05:27.300Z,97878.22
2023-01-11T19:09:45.266Z,97887.06
2023-01-11T19:14:04.293Z,97879.97
2023-01-11T19:18:21.969Z,97878.91
2023-01-11T19:22:39.844Z,97886.72
2023-01-11T19:26:57.464Z,97886.09
2023-01-11T19:31:15.619Z,97885.13
2023-01-11T19:35:33.295Z,97891.06
2023-01-11T19:39:50.807Z,97905.66
2023-01-11T19:44:08.286Z,97914.19
2023-01-11T19:48:26.505Z,97913.53
2023-01-11T19:52:45.516Z,97914.22
2023-01-11T19:57:03.112Z,97917.41
2023-01-11T20:01:20.978Z,97915.19
2023-01-11T20:05:38.504Z,97914.53
2023-01-11T20:09:56.241Z,97910.19
2023-01-11T20:14:14.009Z,97915.91
2023-01-11T20:18:31.519Z,97911.25
2023-01-11T20:22:49.653Z,97908.59
2023-01-11T20:27:07.431Z,97914.97
2023-01-11T20:31:28.510Z,97913.72
2023-01-11T20:35:46.433Z,97919.34
2023-01-11T20:40:04.757Z,97914.41
2023-01-11T20:44:25.899Z,97914.06
2023-01-11T20:48:43.543Z,97918.06
2023-01-11T20:53:01.073Z,97916.09
2023-01-11T20:57:18.787Z,97925.84
2023-01-11T21:01:37.883Z,97919.31
2023-01-11T21:05:56.615Z,97916.91
2023-01-11T21:10:13.987Z,97923.28
2023-01-11T21:14:32.788Z,97914.97
2023-01-11T21:19:04.930Z,97913.34
2023-01-11T21:23:22.787Z,97916.91
2023-01-11T21:27:40.326Z,97920.44
2023-01-11T21:31:58.163Z,97927.16
2023-01-11T21:36:18.841Z,97919.31
2023-01-11T21:40:36.550Z,97921.50
2023-01-11T21:44:54.015Z,97936.13
2023-01-11T21:49:13.000Z,97939.16
2023-01-11T21:53:32.524Z,97934.19
2023-01-11T21:57:50.229Z,97934.00
2023-01-11T22:02:09.880Z,97933.56
2023-01-11T22:06:27.669Z,97942.22
2023-01-11T22:10:57.248Z,97946.56
2023-01-11T22:15:15.254Z,97945.25
2023-01-11T22:19:33.043Z,97952.78
2023-01-11T22:23:55.673Z,97948.81
2023-01-11T22:28:13.586Z,97954.56
2023-01-11T22:32:31.485Z,97948.44
2023-01-11T22:36:49.680Z,97952.44
2023-01-11T22:41:07.270Z,97956.31
2023-01-11T22:45:24.930Z,97963.22
2023-01-11T22:49:42.437Z,97969.16
2023-01-11T22:54:00.057Z,97968.31
2023-01-11T22:58:20.522Z,97976.34
2023-01-11T23:02:38.166Z,97982.00
2023-01-11T23:06:55.937Z,97985.19
2023-01-11T23:11:39.513Z,97983.59
2023-01-11T23:15:59.649Z,97983.88
2023-01-11T23:20:18.838Z,97980.41
2023-01-11T23:24:37.721Z,97984.38
2023-01-11T23:28:55.548Z,97995.13
2023-01-11T23:33:13.098Z,97994.19
2023-01-11T23:37:30.835Z,97992.28
2023-01-11T23:42:07.099Z,97998.84
2023-01-11T23:46:44.221Z,98003.16
2023-01-11T23:51:05.285Z,97993.53
2023-01-11T23:55:23.216Z,98014.41
2023-01-11T23:59:42.334Z,98015.38
